Flight Track Log - Related Links

Times and Time Zones

All times are in EDT time to prevent confusion due to time zone crossing. See the N516QS flight status page for this flight to view local times or setup timezone preferences in your user account.

Time Position Orientation Groundspeed Altitude Reporting Facility
EDT Latitude Longitude Course Direction KTS MPH feet Rate Location/Type
Wed 11:03:56 AM 40.5072 -88.8439 66° East 222 255 3,500  Level Chicago Center
Wed 11:04:58 AM 40.5539 -88.7742 49° Northeast 243 280 7,500 3,171 Climbing Chicago Center
Wed 11:05:59 AM 40.5997 -88.6464 65° Northeast 300 345 10,000 1,854 Climbing Chicago Center
Wed 11:07:01 AM 40.6428 -88.5250 65° Northeast 352 405 11,300 2,293 Climbing Chicago Center
Wed 11:08:02 AM 40.6911 -88.3967 64° Northeast 385 443 14,700 2,585 Climbing Chicago Center
Wed 11:09:00 AM 40.7454 -88.1640 66° East  Level FlightAware Approximate
Wed 11:09:04 AM 40.7436 -88.2544 64° Northeast 429 494 16,600  Level Chicago Center
Wed 11:10:05 AM 40.7961 -88.1114 64° Northeast 438 504 17,400 829 Climbing Chicago Center
Wed 11:11:07 AM 40.8472 -87.9672 65° Northeast 437 503 18,300 976 Climbing Chicago Center
Wed 11:12:08 AM 40.9000 -87.8219 64° Northeast 444 511 19,400 1,122 Climbing Chicago Center
Wed 11:13:10 AM 40.9650 -87.6444 64° Northeast 451 519 20,600 1,317 Climbing Chicago Center
Wed 11:14:11 AM 41.0183 -87.4944 65° Northeast 456 525 22,100 1,171 Climbing Chicago Center
Wed 11:15:13 AM 41.0731 -87.3386 65° Northeast 470 541 23,000 2,341 Climbing Chicago Center
Wed 11:16:14 AM 41.1286 -87.1842 64° Northeast 470 541 26,900 3,197 Climbing Chicago Center
Wed 11:17:15 AM 41.1819 -87.0317 65° Northeast 462 532 29,500 2,146 Climbing Chicago Center
Wed 11:18:17 AM 41.2392 -86.8664 65° Northeast 489 563 31,300 1,659 Climbing Chicago Center
Wed 11:19:18 AM 41.3106 -86.6603 65° Northeast 508 585 32,900 780 Climbing Chicago Center
Wed 11:20:20 AM 41.3697 -86.4833 66° East 518 596 32,900  Level Chicago Center
Wed 11:21:21 AM 41.4292 -86.3097 65° Northeast 519 597 32,900  Level Chicago Center
Wed 11:22:23 AM 41.4883 -86.1361 65° Northeast 517 595 32,900 49 Level Chicago Center
Wed 11:23:24 AM 41.5425 -85.9561 68° East 519 597 33,000 49 Climbing Chicago Center
Wed 11:24:25 AM 41.5808 -85.7669 75° East 525 604 33,000  Level Chicago Center
Wed 11:25:27 AM 41.6214 -85.5808 74° East 524 603 33,000  Level Chicago Center
Wed 11:26:28 AM 41.6692 -85.3608 74° East 523 602 33,000  Level Chicago Center
Wed 11:27:30 AM 41.7044 -85.1850 75° East 537 618 33,000 -49 Level Chicago Center
Wed 11:28:31 AM 41.7450 -84.9928 74° East 536 617 32,900  Descending Chicago Center
Wed 11:29:38 AM 41.7942 -84.7586 74° East 525 604 33,000  Climbing Cleveland Center
Wed 11:30:38 AM 41.8303 -84.5686 76° East 525 604 32,900  Descending Cleveland Center
Wed 11:31:38 AM 41.8681 -84.3756 75° East 525 604 33,000 -50 Climbing Cleveland Center
Wed 11:32:38 AM 41.9006 -84.2044 76° East 525 604 32,800 -1,200 Descending Cleveland Center
Wed 11:33:38 AM 41.9378 -84.0167 75° East 525 604 30,600 -2,150 Descending Cleveland Center
Wed 11:34:38 AM 41.9722 -83.8342 76° East 525 604 28,500 -2,100 Descending Cleveland Center
Wed 11:35:38 AM 42.0086 -83.6517 75° East 514 592 26,400 -2,200 Descending Cleveland Center
Wed 11:36:38 AM 42.0408 -83.4519 78° East 501 577 24,100 -1,950 Descending Cleveland Center
Wed 11:37:38 AM 42.0325 -83.2753 94° East 478 550 22,500 -1,800 Descending Cleveland Center
Wed 11:38:38 AM 42.0136 -83.1039 98° East 478 550 20,500 -1,950 Descending Cleveland Center
Wed 11:39:38 AM 41.9981 -82.9442 97° East 465 535 18,600 -1,850 Descending Cleveland Center
Wed 11:40:38 AM 41.9806 -82.7842 98° East 447 514 16,800 -1,733 Descending Cleveland Center
Wed 11:41:08 AM 41.9736 -82.7058 97° East 420 483 16,000 -1,700 Descending Cleveland Center
Wed 11:41:38 AM 41.9647 -82.6300 99° East 426 490 15,100 -1,808 Descending Cleveland Center
Wed 11:42:21 AM 41.9478 -82.5261 102° East 404 465 13,800 -1,700 Descending Cleveland Center
Wed 11:42:38 AM 41.9381 -82.4842 107° East 414 476 13,400 -1,636 Descending Cleveland Center
Wed 11:43:27 AM 41.9022 -82.3769 114° Southeast 387 445 12,000 -1,550 Descending Cleveland Center
Wed 11:44:38 AM 41.8583 -82.2336 112° Southeast 366 421 10,300 -945 Descending Cleveland Center
Wed 11:45:34 AM 41.8033 -82.1403 128° Southeast 377 434 10,000 -150 Descending Cleveland Center
Wed 11:46:38 AM 41.7211 -82.0575 143° Southeast 355 409 10,000 -590 Level Cleveland Center
Wed 11:47:36 AM 41.6408 -81.9864 146° Southeast 303 349 8,800 -1,339 Descending Cleveland Center
Wed 11:48:30 AM 41.5831 -81.9294 144° Southeast 300 345 7,500 -939 Descending Cleveland Center
Wed 11:49:31 AM 41.5147 -81.8808 152° Southeast 275 316 7,000 -750 Descending Cleveland Center
Wed 11:50:38 AM 41.4517 -81.9406 215° Southwest 234 269 5,900 -1,289 Descending Cleveland Center
Wed 11:51:32 AM 41.4089 -82.0144 232° Southwest 252 290 4,400 -1,304 Descending Cleveland Center
Wed 11:52:33 AM 41.3586 -82.0411 202° Southwest 219 252 3,400 -758 Descending Cleveland Center
Wed 11:54:34 AM 41.3622 -81.9250 88° East 142 163 2,100 -686 Descending Cleveland Center
Wed 11:55:28 AM 41.3856 -81.8950 44° Northeast 121 139 1,400 -778 Descending Cleveland Center
Wed 11:57:00 AM 41.4000 -81.8500 129° Southeast  Level FlightAware Approximate
Wed 12:04:00 PM 41.4094 -81.8547 129° Southeast  Level Estimated

Login

Don't have an account? Register now (free) for customized features, flight alerts, and more!